sensor_id;sensor_type;location;lat;lon;timestamp;temperature;humidity
2497;DHT22;1259;48.306;14.374;2023-03-01T00:00:51;-0.90;99.90
2497;DHT22;1259;48.306;14.374;2023-03-01T00:03:17;-0.90;99.90
2497;DHT22;1259;48.306;14.374;2023-03-01T00:05:44;-1.00;99.90
2497;DHT22;1259;48.306;14.374;2023-03-01T00:08:11;-0.90;99.90
2497;DHT22;1259;48.306;14.374;2023-03-01T00:10:38;-1.00;99.90
2497;DHT22;1259;48.306;14.374;2023-03-01T00:13:04;-1.00;99.90
2497;DHT22;1259;48.306;14.374;2023-03-01T00:15:31;-1.00;99.90
2497;DHT22;1259;48.306;14.374;2023-03-01T00:18:01;-1.10;99.90
2497;DHT22;1259;48.306;14.374;2023-03-01T00:20:28;-1.00;99.90
2497;DHT22;1259;48.306;14.374;2023-03-01T00:22:54;-1.00;99.90
2497;DHT22;1259;48.306;14.374;2023-03-01T00:25:21;-1.10;99.90
2497;DHT22;1259;48.306;14.374;2023-03-01T00:27:48;-1.10;99.90
2497;DHT22;1259;48.306;14.374;2023-03-01T00:30:15;-1.10;99.90
2497;DHT22;1259;48.306;14.374;2023-03-01T00:32:42;-1.10;99.90
2497;DHT22;1259;48.306;14.374;2023-03-01T00:35:10;-1.00;99.90
2497;DHT22;1259;48.306;14.374;2023-03-01T00:37:36;-1.10;99.90
2497;DHT22;1259;48.306;14.374;2023-03-01T00:40:03;-1.10;99.90
2497;DHT22;1259;48.306;14.374;2023-03-01T00:42:31;-1.10;99.90
2497;DHT22;1259;48.306;14.374;2023-03-01T00:44:58;-1.10;99.90
2497;DHT22;1259;48.306;14.374;2023-03-01T00:47:24;-1.10;99.90
2497;DHT22;1259;48.306;14.374;2023-03-01T00:49:51;-1.20;99.90
2497;DHT22;1259;48.306;14.374;2023-03-01T00:52:19;-1.30;99.90
2497;DHT22;1259;48.306;14.374;2023-03-01T00:54:46;-1.30;99.90
2497;DHT22;1259;48.306;14.374;2023-03-01T00:57:12;-1.30;99.90
2497;DHT22;1259;48.306;14.374;2023-03-01T00:59:39;-1.20;99.90
2497;DHT22;1259;48.306;14.374;2023-03-01T01:02:06;-1.30;99.90
2497;DHT22;1259;48.306;14.374;2023-03-01T01:04:32;-1.30;99.90
2497;DHT22;1259;48.306;14.374;2023-03-01T01:06:59;-1.30;99.90
2497;DHT22;1259;48.306;14.374;2023-03-01T01:09:27;-1.40;99.90
2497;DHT22;1259;48.306;14.374;2023-03-01T01:11:54;-1.40;99.90
2497;DHT22;1259;48.306;14.374;2023-03-01T01:14:20;-1.40;99.90
2497;DHT22;1259;48.306;14.374;2023-03-01T01:16:47;-1.40;99.90
2497;DHT22;1259;48.306;14.374;2023-03-01T01:19:14;-1.40;99.90
2497;DHT22;1259;48.306;14.374;2023-03-01T01:21:41;-1.40;99.90
2497;DHT22;1259;48.306;14.374;2023-03-01T01:24:08;-1.40;99.90
2497;DHT22;1259;48.306;14.374;2023-03-01T01:26:36;-1.40;99.90
2497;DHT22;1259;48.306;14.374;2023-03-01T01:29:04;-1.40;99.90
2497;DHT22;1259;48.306;14.374;2023-03-01T01:31:31;-1.40;99.90
2497;DHT22;1259;48.306;14.374;2023-03-01T01:33:58;-1.40;99.90
2497;DHT22;1259;48.306;14.374;2023-03-01T01:36:25;-1.40;99.90
2497;DHT22;1259;48.306;14.374;2023-03-01T01:38:51;-1.50;99.90
2497;DHT22;1259;48.306;14.374;2023-03-01T01:41:19;-1.40;99.90
2497;DHT22;1259;48.306;14.374;2023-03-01T01:43:48;-1.50;99.90
2497;DHT22;1259;48.306;14.374;2023-03-01T01:46:21;-1.50;99.90
2497;DHT22;1259;48.306;14.374;2023-03-01T01:48:52;-1.50;99.90
2497;DHT22;1259;48.306;14.374;2023-03-01T01:51:21;-1.50;99.90
2497;DHT22;1259;48.306;14.374;2023-03-01T01:53:51;-1.50;99.90
2497;DHT22;1259;48.306;14.374;2023-03-01T01:56:19;-1.60;99.90
2497;DHT22;1259;48.306;14.374;2023-03-01T01:58:47;-1.60;99.90
2497;DHT22;1259;48.306;14.374;2023-03-01T02:01:14;-1.60;99.90
2497;DHT22;1259;48.306;14.374;2023-03-01T02:03:42;-1.60;99.90
2497;DHT22;1259;48.306;14.374;2023-03-01T02:06:12;-1.60;99.90
2497;DHT22;1259;48.306;14.374;2023-03-01T02:08:40;-1.70;99.90
2497;DHT22;1259;48.306;14.374;2023-03-01T02:11:07;-1.70;99.90
2497;DHT22;1259;48.306;14.374;2023-03-01T02:13:35;-1.60;99.90
2497;DHT22;1259;48.306;14.374;2023-03-01T02:16:04;-1.70;99.90
2497;DHT22;1259;48.306;14.374;2023-03-01T02:18:30;-1.70;99.90
2497;DHT22;1259;48.306;14.374;2023-03-01T02:21:04;-1.70;99.90
2497;DHT22;1259;48.306;14.374;2023-03-01T02:23:32;-1.70;99.90
2497;DHT22;1259;48.306;14.374;2023-03-01T02:26:01;-1.70;99.90
2497;DHT22;1259;48.306;14.374;2023-03-01T02:28:32;-1.70;99.90
2497;DHT22;1259;48.306;14.374;2023-03-01T02:30:59;-1.70;99.90
2497;DHT22;1259;48.306;14.374;2023-03-01T02:33:49;-1.70;99.90
2497;DHT22;1259;48.306;14.374;2023-03-01T02:36:17;-1.70;99.90
2497;DHT22;1259;48.306;14.374;2023-03-01T02:38:44;-1.70;99.90
2497;DHT22;1259;48.306;14.374;2023-03-01T02:41:11;-1.60;99.90
2497;DHT22;1259;48.306;14.374;2023-03-01T02:43:41;-1.60;99.90
2497;DHT22;1259;48.306;14.374;2023-03-01T02:46:08;-1.70;99.90
2497;DHT22;1259;48.306;14.374;2023-03-01T02:48:42;-1.70;99.90
2497;DHT22;1259;48.306;14.374;2023-03-01T02:51:11;-1.60;99.90
2497;DHT22;1259;48.306;14.374;2023-03-01T02:53:41;-1.60;99.90
2497;DHT22;1259;48.306;14.374;2023-03-01T02:56:11;-1.60;99.90
2497;DHT22;1259;48.306;14.374;2023-03-01T02:58:40;-1.60;99.90
2497;DHT22;1259;48.306;14.374;2023-03-01T03:01:11;-1.60;99.90
2497;DHT22;1259;48.306;14.374;2023-03-01T03:03:39;-1.60;99.90
2497;DHT22;1259;48.306;14.374;2023-03-01T03:06:06;-1.70;99.90
2497;DHT22;1259;48.306;14.374;2023-03-01T03:08:32;-1.60;99.90
2497;DHT22;1259;48.306;14.374;2023-03-01T03:10:59;-1.60;99.90
2497;DHT22;1259;48.306;14.374;2023-03-01T03:13:26;-1.70;99.90
2497;DHT22;1259;48.306;14.374;2023-03-01T03:15:55;-1.60;99.90
2497;DHT22;1259;48.306;14.374;2023-03-01T03:18:22;-1.60;99.90
2497;DHT22;1259;48.306;14.374;2023-03-01T03:20:51;-1.60;99.90
2497;DHT22;1259;48.306;14.374;2023-03-01T03:23:19;-1.60;99.90
2497;DHT22;1259;48.306;14.374;2023-03-01T03:25:47;-1.60;99.90
2497;DHT22;1259;48.306;14.374;2023-03-01T03:28:14;-1.60;99.90
2497;DHT22;1259;48.306;14.374;2023-03-01T03:30:41;-1.60;99.90
2497;DHT22;1259;48.306;14.374;2023-03-01T03:33:09;-1.60;99.90
2497;DHT22;1259;48.306;14.374;2023-03-01T03:35:38;-1.60;99.90
2497;DHT22;1259;48.306;14.374;2023-03-01T03:38:06;-1.70;99.90
2497;DHT22;1259;48.306;14.374;2023-03-01T03:40:41;-1.70;99.90
2497;DHT22;1259;48.306;14.374;2023-03-01T03:43:09;-1.60;99.90
2497;DHT22;1259;48.306;14.374;2023-03-01T03:45:36;-1.60;99.90
2497;DHT22;1259;48.306;14.374;2023-03-01T03:48:04;-1.60;99.90
2497;DHT22;1259;48.306;14.374;2023-03-01T03:50:32;-1.70;99.90
2497;DHT22;1259;48.306;14.374;2023-03-01T03:52:59;-1.80;99.90
2497;DHT22;1259;48.306;14.374;2023-03-01T03:55:26;-1.80;99.90
2497;DHT22;1259;48.306;14.374;2023-03-01T03:57:56;-1.80;99.90
2497;DHT22;1259;48.306;14.374;2023-03-01T04:00:23;-1.70;99.90
2497;DHT22;1259;48.306;14.374;2023-03-01T04:02:50;-1.80;99.90
2497;DHT22;1259;48.306;14.374;2023-03-01T04:05:22;-1.80;99.90
2497;DHT22;1259;48.306;14.374;2023-03-01T04:07:50;-1.80;99.90
2497;DHT22;1259;48.306;14.374;2023-03-01T04:10:27;-1.80;99.90
2497;DHT22;1259;48.306;14.374;2023-03-01T04:12:54;-1.80;99.90
2497;DHT22;1259;48.306;14.374;2023-03-01T04:15:21;-1.80;99.90
2497;DHT22;1259;48.306;14.374;2023-03-01T04:17:49;-1.80;99.90
2497;DHT22;1259;48.306;14.374;2023-03-01T04:20:17;-1.80;99.90
2497;DHT22;1259;48.306;14.374;2023-03-01T04:22:51;-1.80;99.90
2497;DHT22;1259;48.306;14.374;2023-03-01T04:25:18;-1.70;99.90
2497;DHT22;1259;48.306;14.374;2023-03-01T04:27:45;-1.70;99.90
2497;DHT22;1259;48.306;14.374;2023-03-01T04:30:12;-1.80;99.90
2497;DHT22;1259;48.306;14.374;2023-03-01T04:32:38;-1.70;99.90
2497;DHT22;1259;48.306;14.374;2023-03-01T04:35:05;-1.80;99.90
2497;DHT22;1259;48.306;14.374;2023-03-01T04:37:32;-1.70;99.90
2497;DHT22;1259;48.306;14.374;2023-03-01T04:40:01;-1.70;99.90
2497;DHT22;1259;48.306;14.374;2023-03-01T04:42:37;-1.80;99.90
2497;DHT22;1259;48.306;14.374;2023-03-01T04:45:04;-1.80;99.90
2497;DHT22;1259;48.306;14.374;2023-03-01T04:47:38;-1.80;99.90
2497;DHT22;1259;48.306;14.374;2023-03-01T04:50:05;-1.70;99.90
2497;DHT22;1259;48.306;14.374;2023-03-01T04:52:32;-1.80;99.90
2497;DHT22;1259;48.306;14.374;2023-03-01T04:54:59;-1.80;99.90
2497;DHT22;1259;48.306;14.374;2023-03-01T04:57:28;-1.80;99.90
2497;DHT22;1259;48.306;14.374;2023-03-01T04:59:55;-1.80;99.90
2497;DHT22;1259;48.306;14.374;2023-03-01T05:02:22;-1.80;99.90
2497;DHT22;1259;48.306;14.374;2023-03-01T05:04:49;-1.90;99.90
2497;DHT22;1259;48.306;14.374;2023-03-01T05:07:15;-1.80;99.90
2497;DHT22;1259;48.306;14.374;2023-03-01T05:09:44;-1.90;99.90
2497;DHT22;1259;48.306;14.374;2023-03-01T05:12:11;-1.90;99.90
2497;DHT22;1259;48.306;14.374;2023-03-01T05:14:39;-1.90;99.90
2497;DHT22;1259;48.306;14.374;2023-03-01T05:17:06;-1.90;99.90
2497;DHT22;1259;48.306;14.374;2023-03-01T05:19:32;-1.80;99.90
2497;DHT22;1259;48.306;14.374;2023-03-01T05:21:59;-1.90;99.90
2497;DHT22;1259;48.306;14.374;2023-03-01T05:24:30;-1.80;99.90
2497;DHT22;1259;48.306;14.374;2023-03-01T05:26:57;-1.80;99.90
2497;DHT22;1259;48.306;14.374;2023-03-01T05:29:24;-1.80;99.90
2497;DHT22;1259;48.306;14.374;2023-03-01T05:31:53;-1.80;99.90
2497;DHT22;1259;48.306;14.374;2023-03-01T05:34:22;-1.90;99.90
2497;DHT22;1259;48.306;14.374;2023-03-01T05:36:49;-1.70;99.90
2497;DHT22;1259;48.306;14.374;2023-03-01T05:39:18;-1.70;99.90
2497;DHT22;1259;48.306;14.374;2023-03-01T05:41:45;-1.80;99.90
2497;DHT22;1259;48.306;14.374;2023-03-01T05:44:12;-1.90;99.90
2497;DHT22;1259;48.306;14.374;2023-03-01T05:46:38;-1.90;99.90
2497;DHT22;1259;48.306;14.374;2023-03-01T05:49:06;-1.90;99.90
2497;DHT22;1259;48.306;14.374;2023-03-01T05:51:33;-2.00;99.90
2497;DHT22;1259;48.306;14.374;2023-03-01T05:54:00;-2.00;99.90
2497;DHT22;1259;48.306;14.374;2023-03-01T05:56:26;-1.90;99.90
2497;DHT22;1259;48.306;14.374;2023-03-01T05:58:54;-1.90;99.90
2497;DHT22;1259;48.306;14.374;2023-03-01T06:01:21;-1.90;99.90
2497;DHT22;1259;48.306;14.374;2023-03-01T06:03:47;-1.90;99.90
2497;DHT22;1259;48.306;14.374;2023-03-01T06:06:15;-1.90;99.90
2497;DHT22;1259;48.306;14.374;2023-03-01T06:08:42;-1.90;99.90
2497;DHT22;1259;48.306;14.374;2023-03-01T06:11:09;-1.90;99.90
2497;DHT22;1259;48.306;14.374;2023-03-01T06:13:36;-1.90;99.90
2497;DHT22;1259;48.306;14.374;2023-03-01T06:16:04;-1.90;99.90
2497;DHT22;1259;48.306;14.374;2023-03-01T06:18:31;-1.90;99.90
2497;DHT22;1259;48.306;14.374;2023-03-01T06:20:57;-1.90;99.90
2497;DHT22;1259;48.306;14.374;2023-03-01T06:23:25;-1.80;99.90
2497;DHT22;1259;48.306;14.374;2023-03-01T06:25:52;-1.80;99.90
2497;DHT22;1259;48.306;14.374;2023-03-01T06:28:19;-1.70;99.90
2497;DHT22;1259;48.306;14.374;2023-03-01T06:30:46;-1.70;99.90
2497;DHT22;1259;48.306;14.374;2023-03-01T06:33:12;-1.70;99.90
2497;DHT22;1259;48.306;14.374;2023-03-01T06:35:39;-1.70;99.90
2497;DHT22;1259;48.306;14.374;2023-03-01T06:38:06;-1.70;99.90
2497;DHT22;1259;48.306;14.374;2023-03-01T06:40:34;-1.70;99.90
2497;DHT22;1259;48.306;14.374;2023-03-01T06:43:01;-1.60;99.90
2497;DHT22;1259;48.306;14.374;2023-03-01T06:45:28;-1.50;99.90
2497;DHT22;1259;48.306;14.374;2023-03-01T06:48:01;-1.40;99.90
2497;DHT22;1259;48.306;14.374;2023-03-01T06:50:27;-1.40;99.90
2497;DHT22;1259;48.306;14.374;2023-03-01T06:52:55;-1.40;99.90
2497;DHT22;1259;48.306;14.374;2023-03-01T06:55:21;-1.30;99.90
2497;DHT22;1259;48.306;14.374;2023-03-01T06:57:49;-1.20;99.90
2497;DHT22;1259;48.306;14.374;2023-03-01T07:00:20;-1.10;99.90
2497;DHT22;1259;48.306;14.374;2023-03-01T07:02:47;-1.10;99.90
2497;DHT22;1259;48.306;14.374;2023-03-01T07:05:13;-1.00;99.90
2497;DHT22;1259;48.306;14.374;2023-03-01T07:07:40;-0.90;99.90
2497;DHT22;1259;48.306;14.374;2023-03-01T07:10:07;-0.80;99.90
2497;DHT22;1259;48.306;14.374;2023-03-01T07:12:34;-0.70;99.90
2497;DHT22;1259;48.306;14.374;2023-03-01T07:15:02;-0.60;99.90
2497;DHT22;1259;48.306;14.374;2023-03-01T07:17:29;-0.60;99.90
2497;DHT22;1259;48.306;14.374;2023-03-01T07:19:56;-0.50;99.90
2497;DHT22;1259;48.306;14.374;2023-03-01T07:22:22;-0.50;99.90
2497;DHT22;1259;48.306;14.374;2023-03-01T07:24:49;-0.30;99.90
2497;DHT22;1259;48.306;14.374;2023-03-01T07:27:16;-0.20;99.90
2497;DHT22;1259;48.306;14.374;2023-03-01T07:29:42;-0.10;99.90
2497;DHT22;1259;48.306;14.374;2023-03-01T07:32:11;0.00;99.90
2497;DHT22;1259;48.306;14.374;2023-03-01T07:34:37;-0.10;99.90
2497;DHT22;1259;48.306;14.374;2023-03-01T07:37:04;0.00;99.90
2497;DHT22;1259;48.306;14.374;2023-03-01T07:39:31;0.20;99.90
2497;DHT22;1259;48.306;14.374;2023-03-01T07:41:57;0.20;99.90
2497;DHT22;1259;48.306;14.374;2023-03-01T07:44:24;0.30;99.90
2497;DHT22;1259;48.306;14.374;2023-03-01T07:46:51;0.50;99.90
2497;DHT22;1259;48.306;14.374;2023-03-01T07:49:22;0.70;99.90
2497;DHT22;1259;48.306;14.374;2023-03-01T07:51:51;0.70;99.90
2497;DHT22;1259;48.306;14.374;2023-03-01T07:54:18;0.80;99.90
2497;DHT22;1259;48.306;14.374;2023-03-01T07:56:44;0.80;99.90
2497;DHT22;1259;48.306;14.374;2023-03-01T07:59:11;0.90;99.90
2497;DHT22;1259;48.306;14.374;2023-03-01T08:01:38;1.20;99.90
2497;DHT22;1259;48.306;14.374;2023-03-01T08:04:04;1.00;99.60
2497;DHT22;1259;48.306;14.374;2023-03-01T08:06:34;1.00;99.70
2497;DHT22;1259;48.306;14.374;2023-03-01T08:09:01;1.30;99.90
2497;DHT22;1259;48.306;14.374;2023-03-01T08:11:28;1.40;99.90
2497;DHT22;1259;48.306;14.374;2023-03-01T08:13:55;1.50;99.90
2497;DHT22;1259;48.306;14.374;2023-03-01T08:16:22;1.60;99.20
2497;DHT22;1259;48.306;14.374;2023-03-01T08:18:49;1.90;99.90
2497;DHT22;1259;48.306;14.374;2023-03-01T08:21:16;2.00;99.90
2497;DHT22;1259;48.306;14.374;2023-03-01T08:23:46;2.30;99.90
2497;DHT22;1259;48.306;14.374;2023-03-01T08:26:13;2.20;99.30
2497;DHT22;1259;48.306;14.374;2023-03-01T08:28:40;2.40;98.20
2497;DHT22;1259;48.306;14.374;2023-03-01T08:31:14;2.40;98.00
2497;DHT22;1259;48.306;14.374;2023-03-01T08:33:41;2.30;97.10
2497;DHT22;1259;48.306;14.374;2023-03-01T08:36:08;2.40;98.90
2497;DHT22;1259;48.306;14.374;2023-03-01T08:38:35;2.50;97.20
2497;DHT22;1259;48.306;14.374;2023-03-01T08:41:03;2.70;98.00
2497;DHT22;1259;48.306;14.374;2023-03-01T08:43:30;2.80;96.70
2497;DHT22;1259;48.306;14.374;2023-03-01T08:45:56;3.00;97.40
2497;DHT22;1259;48.306;14.374;2023-03-01T08:48:23;3.00;96.70
2497;DHT22;1259;48.306;14.374;2023-03-01T08:50:50;3.20;97.80
2497;DHT22;1259;48.306;14.374;2023-03-01T08:53:17;3.30;97.70
2497;DHT22;1259;48.306;14.374;2023-03-01T08:55:43;3.40;97.70
2497;DHT22;1259;48.306;14.374;2023-03-01T08:58:11;3.50;97.20
2497;DHT22;1259;48.306;14.374;2023-03-01T09:00:38;3.20;95.50
2497;DHT22;1259;48.306;14.374;2023-03-01T09:03:05;3.20;96.20
2497;DHT22;1259;48.306;14.374;2023-03-01T09:05:32;3.40;96.10
2497;DHT22;1259;48.306;14.374;2023-03-01T09:07:59;3.40;96.80
2497;DHT22;1259;48.306;14.374;2023-03-01T09:10:26;3.70;96.60
2497;DHT22;1259;48.306;14.374;2023-03-01T09:12:52;3.70;97.70
2497;DHT22;1259;48.306;14.374;2023-03-01T09:15:20;3.90;97.20
2497;DHT22;1259;48.306;14.374;2023-03-01T09:17:47;3.60;95.80
2497;DHT22;1259;48.306;14.374;2023-03-01T09:20:14;3.90;98.30
2497;DHT22;1259;48.306;14.374;2023-03-01T09:22:40;4.30;98.30
2497;DHT22;1259;48.306;14.374;2023-03-01T09:25:07;4.20;97.50
2497;DHT22;1259;48.306;14.374;2023-03-01T09:27:35;4.20;98.60
2497;DHT22;1259;48.306;14.374;2023-03-01T09:30:01;4.40;98.20
2497;DHT22;1259;48.306;14.374;2023-03-01T09:32:31;4.30;97.90
2497;DHT22;1259;48.306;14.374;2023-03-01T09:34:57;4.30;98.30
2497;DHT22;1259;48.306;14.374;2023-03-01T09:37:33;4.50;99.40
2497;DHT22;1259;48.306;14.374;2023-03-01T09:40:00;4.60;97.50
2497;DHT22;1259;48.306;14.374;2023-03-01T09:42:28;4.60;98.70
2497;DHT22;1259;48.306;14.374;2023-03-01T09:44:57;4.70;98.20
2497;DHT22;1259;48.306;14.374;2023-03-01T09:47:26;4.70;98.10
2497;DHT22;1259;48.306;14.374;2023-03-01T09:49:59;4.50;96.70
2497;DHT22;1259;48.306;14.374;2023-03-01T09:52:29;5.00;99.70
2497;DHT22;1259;48.306;14.374;2023-03-01T09:54:58;5.10;98.60
2497;DHT22;1259;48.306;14.374;2023-03-01T09:57:26;5.20;98.60
2497;DHT22;1259;48.306;14.374;2023-03-01T10:00:03;5.20;99.20
2497;DHT22;1259;48.306;14.374;2023-03-01T10:02:37;5.30;98.10
2497;DHT22;1259;48.306;14.374;2023-03-01T10:05:09;5.40;98.50
2497;DHT22;1259;48.306;14.374;2023-03-01T10:07:39;5.30;97.50
2497;DHT22;1259;48.306;14.374;2023-03-01T10:10:12;5.50;99.20
2497;DHT22;1259;48.306;14.374;2023-03-01T10:12:41;5.50;97.30
2497;DHT22;1259;48.306;14.374;2023-03-01T10:15:10;5.60;97.10
2497;DHT22;1259;48.306;14.374;2023-03-01T10:17:39;5.60;97.30
2497;DHT22;1259;48.306;14.374;2023-03-01T10:20:19;5.70;98.50
2497;DHT22;1259;48.306;14.374;2023-03-01T10:22:46;5.60;96.00
2497;DHT22;1259;48.306;14.374;2023-03-01T10:25:17;5.80;98.30
2497;DHT22;1259;48.306;14.374;2023-03-01T10:27:45;6.00;97.40
2497;DHT22;1259;48.306;14.374;2023-03-01T10:30:16;6.00;95.80
2497;DHT22;1259;48.306;14.374;2023-03-01T10:32:45;5.90;96.60
2497;DHT22;1259;48.306;14.374;2023-03-01T10:35:15;6.20;96.40
2497;DHT22;1259;48.306;14.374;2023-03-01T10:37:47;6.20;96.00
2497;DHT22;1259;48.306;14.374;2023-03-01T10:40:22;6.20;96.90
2497;DHT22;1259;48.306;14.374;2023-03-01T10:42:49;6.20;95.90
2497;DHT22;1259;48.306;14.374;2023-03-01T10:45:17;6.10;95.40
2497;DHT22;1259;48.306;14.374;2023-03-01T10:47:53;6.20;97.00
2497;DHT22;1259;48.306;14.374;2023-03-01T10:50:29;6.30;96.20
2497;DHT22;1259;48.306;14.374;2023-03-01T10:52:58;6.40;96.30
2497;DHT22;1259;48.306;14.374;2023-03-01T10:55:27;6.50;97.00
2497;DHT22;1259;48.306;14.374;2023-03-01T10:58:09;6.60;97.10
2497;DHT22;1259;48.306;14.374;2023-03-01T11:00:45;6.70;96.60
2497;DHT22;1259;48.306;14.374;2023-03-01T11:03:14;6.50;95.40
2497;DHT22;1259;48.306;14.374;2023-03-01T11:05:50;6.50;95.40
2497;DHT22;1259;48.306;14.374;2023-03-01T11:08:27;6.60;96.70
2497;DHT22;1259;48.306;14.374;2023-03-01T11:11:02;6.50;96.00
2497;DHT22;1259;48.306;14.374;2023-03-01T11:13:29;6.70;96.60
2497;DHT22;1259;48.306;14.374;2023-03-01T11:16:00;6.80;96.30
2497;DHT22;1259;48.306;14.374;2023-03-01T11:18:26;6.80;95.80
2497;DHT22;1259;48.306;14.374;2023-03-01T11:20:55;6.90;95.90
2497;DHT22;1259;48.306;14.374;2023-03-01T11:23:23;7.00;96.60
2497;DHT22;1259;48.306;14.374;2023-03-01T11:25:53;7.00;95.80
2497;DHT22;1259;48.306;14.374;2023-03-01T11:28:21;7.20;97.60
2497;DHT22;1259;48.306;14.374;2023-03-01T11:30:50;7.30;97.00
2497;DHT22;1259;48.306;14.374;2023-03-01T11:33:20;7.10;95.50
2497;DHT22;1259;48.306;14.374;2023-03-01T11:35:49;7.20;96.50
2497;DHT22;1259;48.306;14.374;2023-03-01T11:38:19;7.10;95.40
2497;DHT22;1259;48.306;14.374;2023-03-01T11:40:47;7.20;95.80
2497;DHT22;1259;48.306;14.374;2023-03-01T11:43:20;7.30;96.00
2497;DHT22;1259;48.306;14.374;2023-03-01T11:45:55;7.40;96.70
2497;DHT22;1259;48.306;14.374;2023-03-01T11:48:27;7.30;95.20
2497;DHT22;1259;48.306;14.374;2023-03-01T11:51:00;7.50;96.40
2497;DHT22;1259;48.306;14.374;2023-03-01T11:53:35;7.50;95.60
2497;DHT22;1259;48.306;14.374;2023-03-01T11:56:10;7.60;96.70
2497;DHT22;1259;48.306;14.374;2023-03-01T11:58:45;7.70;95.60
2497;DHT22;1259;48.306;14.374;2023-03-01T12:01:24;7.70;95.30
2497;DHT22;1259;48.306;14.374;2023-03-01T12:06:36;7.70;95.40
2497;DHT22;1259;48.306;14.374;2023-03-01T12:09:17;7.30;93.20
2497;DHT22;1259;48.306;14.374;2023-03-01T12:11:59;7.40;94.70
2497;DHT22;1259;48.306;14.374;2023-03-01T12:14:35;7.60;95.30
2497;DHT22;1259;48.306;14.374;2023-03-01T12:17:08;7.60;95.70
2497;DHT22;1259;48.306;14.374;2023-03-01T12:19:40;7.70;95.00
2497;DHT22;1259;48.306;14.374;2023-03-01T12:22:23;7.80;94.80
2497;DHT22;1259;48.306;14.374;2023-03-01T12:24:57;7.80;95.80
2497;DHT22;1259;48.306;14.374;2023-03-01T12:27:30;7.80;95.10
2497;DHT22;1259;48.306;14.374;2023-03-01T12:30:03;7.80;95.40
2497;DHT22;1259;48.306;14.374;2023-03-01T12:32:35;7.80;95.40
2497;DHT22;1259;48.306;14.374;2023-03-01T12:35:11;7.70;95.30
2497;DHT22;1259;48.306;14.374;2023-03-01T12:37:45;7.60;94.10
2497;DHT22;1259;48.306;14.374;2023-03-01T12:40:27;7.70;95.10
2497;DHT22;1259;48.306;14.374;2023-03-01T12:43:02;7.70;95.30
2497;DHT22;1259;48.306;14.374;2023-03-01T12:45:47;7.70;94.70
2497;DHT22;1259;48.306;14.374;2023-03-01T12:48:19;7.70;95.30
2497;DHT22;1259;48.306;14.374;2023-03-01T12:50:49;7.70;95.30
2497;DHT22;1259;48.306;14.374;2023-03-01T12:53:21;7.70;94.90
2497;DHT22;1259;48.306;14.374;2023-03-01T12:55:48;7.60;94.80
2497;DHT22;1259;48.306;14.374;2023-03-01T12:58:19;7.60;95.50
2497;DHT22;1259;48.306;14.374;2023-03-01T13:00:53;7.60;95.10
2497;DHT22;1259;48.306;14.374;2023-03-01T13:03:28;7.60;95.20
2497;DHT22;1259;48.306;14.374;2023-03-01T13:06:02;7.60;94.70
2497;DHT22;1259;48.306;14.374;2023-03-01T13:08:35;7.60;94.90
2497;DHT22;1259;48.306;14.374;2023-03-01T13:11:04;7.60;95.00
2497;DHT22;1259;48.306;14.374;2023-03-01T13:13:31;7.60;95.50
2497;DHT22;1259;48.306;14.374;2023-03-01T13:16:00;7.60;94.90
2497;DHT22;1259;48.306;14.374;2023-03-01T13:18:45;7.50;95.30
2497;DHT22;1259;48.306;14.374;2023-03-01T13:21:12;7.60;96.00
2497;DHT22;1259;48.306;14.374;2023-03-01T13:23:54;7.50;95.30
2497;DHT22;1259;48.306;14.374;2023-03-01T13:26:21;7.40;95.00
2497;DHT22;1259;48.306;14.374;2023-03-01T13:28:49;7.30;94.60
2497;DHT22;1259;48.306;14.374;2023-03-01T13:34:02;7.30;95.50
2497;DHT22;1259;48.306;14.374;2023-03-01T13:36:48;7.30;95.30
2497;DHT22;1259;48.306;14.374;2023-03-01T13:39:27;7.30;95.10
2497;DHT22;1259;48.306;14.374;2023-03-01T13:41:56;7.30;95.60
2497;DHT22;1259;48.306;14.374;2023-03-01T13:44:24;7.30;94.90
2497;DHT22;1259;48.306;14.374;2023-03-01T13:46:53;7.30;95.20
2497;DHT22;1259;48.306;14.374;2023-03-01T13:49:23;7.20;94.10
2497;DHT22;1259;48.306;14.374;2023-03-01T13:51:50;7.30;95.30
2497;DHT22;1259;48.306;14.374;2023-03-01T13:54:20;7.30;94.70
2497;DHT22;1259;48.306;14.374;2023-03-01T13:56:50;7.20;94.30
2497;DHT22;1259;48.306;14.374;2023-03-01T13:59:17;7.20;94.70
2497;DHT22;1259;48.306;14.374;2023-03-01T14:01:44;7.20;94.90
2497;DHT22;1259;48.306;14.374;2023-03-01T14:04:18;7.20;95.20
2497;DHT22;1259;48.306;14.374;2023-03-01T14:06:47;7.20;95.00
2497;DHT22;1259;48.306;14.374;2023-03-01T14:09:15;7.20;94.70
2497;DHT22;1259;48.306;14.374;2023-03-01T14:11:49;7.20;95.10
2497;DHT22;1259;48.306;14.374;2023-03-01T14:14:29;7.30;96.70
2497;DHT22;1259;48.306;14.374;2023-03-01T14:16:58;7.30;96.00
2497;DHT22;1259;48.306;14.374;2023-03-01T14:19:28;7.20;95.20
2497;DHT22;1259;48.306;14.374;2023-03-01T14:22:00;7.30;95.70
2497;DHT22;1259;48.306;14.374;2023-03-01T14:24:29;7.30;95.90
2497;DHT22;1259;48.306;14.374;2023-03-01T14:26:58;7.30;95.90
2497;DHT22;1259;48.306;14.374;2023-03-01T14:29:33;7.20;95.10
2497;DHT22;1259;48.306;14.374;2023-03-01T14:32:08;7.20;95.10
2497;DHT22;1259;48.306;14.374;2023-03-01T14:34:35;7.20;94.50
2497;DHT22;1259;48.306;14.374;2023-03-01T14:37:11;7.20;94.90
2497;DHT22;1259;48.306;14.374;2023-03-01T14:39:37;7.20;94.80
2497;DHT22;1259;48.306;14.374;2023-03-01T14:42:04;7.20;94.90
2497;DHT22;1259;48.306;14.374;2023-03-01T14:44:31;7.10;95.20
2497;DHT22;1259;48.306;14.374;2023-03-01T14:47:00;7.00;95.40
2497;DHT22;1259;48.306;14.374;2023-03-01T14:49:29;6.80;95.10
2497;DHT22;1259;48.306;14.374;2023-03-01T14:51:57;6.80;95.60
2497;DHT22;1259;48.306;14.374;2023-03-01T14:54:27;6.80;95.50
2497;DHT22;1259;48.306;14.374;2023-03-01T14:56:57;6.70;95.50
2497;DHT22;1259;48.306;14.374;2023-03-01T14:59:25;6.70;95.90
2497;DHT22;1259;48.306;14.374;2023-03-01T15:01:53;6.60;95.30
2497;DHT22;1259;48.306;14.374;2023-03-01T15:04:20;6.60;95.70
2497;DHT22;1259;48.306;14.374;2023-03-01T15:06:50;6.60;96.20
2497;DHT22;1259;48.306;14.374;2023-03-01T15:09:17;6.60;95.60
2497;DHT22;1259;48.306;14.374;2023-03-01T15:11:45;6.40;95.50
2497;DHT22;1259;48.306;14.374;2023-03-01T15:14:24;6.40;96.10
2497;DHT22;1259;48.306;14.374;2023-03-01T15:16:51;6.40;96.10
2497;DHT22;1259;48.306;14.374;2023-03-01T15:19:18;6.30;96.40
2497;DHT22;1259;48.306;14.374;2023-03-01T15:21:46;6.30;96.50
2497;DHT22;1259;48.306;14.374;2023-03-01T15:24:16;6.30;96.20
2497;DHT22;1259;48.306;14.374;2023-03-01T15:26:50;6.20;96.80
2497;DHT22;1259;48.306;14.374;2023-03-01T15:29:20;6.20;96.60
2497;DHT22;1259;48.306;14.374;2023-03-01T15:31:53;6.20;96.80
2497;DHT22;1259;48.306;14.374;2023-03-01T15:34:22;6.20;97.30
2497;DHT22;1259;48.306;14.374;2023-03-01T15:36:49;6.20;97.30
2497;DHT22;1259;48.306;14.374;2023-03-01T15:39:25;6.00;97.00
2497;DHT22;1259;48.306;14.374;2023-03-01T15:41:54;5.90;96.80
2497;DHT22;1259;48.306;14.374;2023-03-01T15:44:25;5.90;97.70
2497;DHT22;1259;48.306;14.374;2023-03-01T15:46:52;5.90;97.80
2497;DHT22;1259;48.306;14.374;2023-03-01T15:49:23;5.90;97.80
2497;DHT22;1259;48.306;14.374;2023-03-01T15:51:52;5.70;97.60
2497;DHT22;1259;48.306;14.374;2023-03-01T15:54:21;5.60;97.50
2497;DHT22;1259;48.306;14.374;2023-03-01T15:56:48;5.60;97.30
2497;DHT22;1259;48.306;14.374;2023-03-01T15:59:17;5.60;97.80
2497;DHT22;1259;48.306;14.374;2023-03-01T16:01:44;5.50;97.80
2497;DHT22;1259;48.306;14.374;2023-03-01T16:04:11;5.40;97.90
2497;DHT22;1259;48.306;14.374;2023-03-01T16:06:41;5.40;97.80
2497;DHT22;1259;48.306;14.374;2023-03-01T16:09:08;5.30;98.00
2497;DHT22;1259;48.306;14.374;2023-03-01T16:11:37;5.30;98.10